Terminal Aerodrome Forecast
Issued by NWS Shreveport, LA

Home | Current Version | Previous Version | Text Only | Print | Product List | Glossary On
Versions: 1 2 3 4 5 6 7 8 9 10 11 12 13 14
000
FTUS44 KSHV 280500
TAFELD
TAF
KELD 280533Z 2806/2906 00000KT P6SM FEW250
     FM281400 14005KT P6SM SCT250
     FM281700 17009KT P6SM SCT250
     FM290000 17005KT P6SM SCT250=

USA.gov is the U.S. government's official web portal to all federal, state and local government web resources and services.